createdAt,value
2022-10-06T00:02:35.718Z,69.69
2022-10-06T00:12:45.199Z,69.88
2022-10-06T00:22:50.087Z,75.57
2022-10-06T00:32:57.338Z,77.58
2022-10-06T00:43:02.632Z,80.90
2022-10-06T00:53:07.792Z,79.12
2022-10-06T01:03:15.803Z,76.27
2022-10-06T01:13:20.567Z,75.08
2022-10-06T01:23:25.018Z,72.63
2022-10-06T01:33:29.780Z,72.01
2022-10-06T01:43:34.217Z,71.95
2022-10-06T01:53:37.390Z,71.46
2022-10-06T02:03:42.975Z,70.58
2022-10-06T02:13:46.061Z,71.21
2022-10-06T02:23:51.454Z,71.22
2022-10-06T02:33:55.295Z,70.99
2022-10-06T02:44:00.814Z,71.78
2022-10-06T02:54:03.904Z,71.64
2022-10-06T03:04:08.228Z,70.81
2022-10-06T03:14:11.160Z,69.52
2022-10-06T03:24:16.099Z,68.41
2022-10-06T03:34:22.419Z,68.06
2022-10-06T03:44:27.323Z,67.04
2022-10-06T03:54:30.439Z,66.60
2022-10-06T04:04:35.108Z,66.78
2022-10-06T04:14:50.653Z,67.84
2022-10-06T04:24:56.005Z,67.74
2022-10-06T04:34:58.885Z,66.81
2022-10-06T04:45:05.063Z,66.13
2022-10-06T04:55:11.175Z,65.54
2022-10-06T05:05:16.368Z,66.44
2022-10-06T05:15:19.402Z,65.64
2022-10-06T05:25:24.430Z,67.52
2022-10-06T05:35:28.052Z,66.97
2022-10-06T05:45:32.592Z,66.08
2022-10-06T05:55:35.697Z,64.58
2022-10-06T06:05:43.057Z,64.02
2022-10-06T06:16:01.369Z,63.80
2022-10-06T06:26:09.008Z,62.75
2022-10-06T06:36:18.078Z,63.36
2022-10-06T06:46:25.205Z,63.29
2022-10-06T06:56:39.006Z,64.24
2022-10-06T07:06:59.574Z,63.97
2022-10-06T07:17:24.252Z,64.21
2022-10-06T07:27:31.000Z,63.86
2022-10-06T07:37:36.723Z,64.34
2022-10-06T07:47:41.453Z,64.00
2022-10-06T07:57:46.296Z,62.96
2022-10-06T08:07:50.524Z,63.40
2022-10-06T08:17:54.174Z,62.13
2022-10-06T08:27:58.422Z,61.53
2022-10-06T08:38:01.402Z,62.77
2022-10-06T08:48:11.137Z,60.95
2022-10-06T08:58:29.232Z,61.02
2022-10-06T09:08:45.376Z,59.97
2022-10-06T09:19:09.270Z,59.22
2022-10-06T09:29:14.818Z,58.24
2022-10-06T09:39:27.812Z,56.50
2022-10-06T09:49:32.402Z,54.80
2022-10-06T09:59:40.162Z,53.62
2022-10-06T10:09:45.383Z,51.78
2022-10-06T10:19:54.543Z,49.66
2022-10-06T10:30:05.894Z,48.30
2022-10-06T10:40:16.163Z,46.55
2022-10-06T10:50:26.650Z,46.27
2022-10-06T11:00:35.479Z,43.87
2022-10-06T11:10:47.518Z,45.24
2022-10-06T11:20:54.287Z,44.23
2022-10-06T11:31:05.047Z,41.94
2022-10-06T11:41:14.024Z,41.99
2022-10-06T11:51:31.902Z,42.02
2022-10-06T12:01:53.529Z,42.01
2022-10-06T12:11:59.997Z,38.98
2022-10-06T12:22:16.976Z,41.16
2022-10-06T12:32:41.515Z,38.80
2022-10-06T12:42:44.491Z,39.13
2022-10-06T12:52:54.222Z,38.55
2022-10-06T13:02:58.512Z,38.29
2022-10-06T13:13:02.791Z,38.31
2022-10-06T13:23:15.870Z,38.14
2022-10-06T13:33:21.410Z,37.37
2022-10-06T13:43:24.645Z,38.41
2022-10-06T13:53:31.596Z,38.06
2022-10-06T14:13:48.443Z,36.96
2022-10-06T14:23:53.307Z,38.38
2022-10-06T14:33:58.016Z,39.00
2022-10-06T14:44:03.579Z,40.81
2022-10-06T14:54:10.540Z,38.54
2022-10-06T15:04:15.357Z,38.35
2022-10-06T15:14:19.618Z,38.94
2022-10-06T15:24:22.395Z,40.48
2022-10-06T15:34:27.914Z,41.48
2022-10-06T15:44:34.674Z,41.66
2022-10-06T15:54:41.187Z,42.02
2022-10-06T16:04:57.390Z,42.74
2022-10-06T16:15:01.570Z,44.87
2022-10-06T16:25:04.952Z,47.12
2022-10-06T16:35:11.765Z,45.35
2022-10-06T16:45:17.579Z,46.22
2022-10-06T16:55:21.906Z,46.86
2022-10-06T17:05:24.918Z,46.88
2022-10-06T17:15:33.337Z,47.42
2022-10-06T17:25:36.933Z,48.65
2022-10-06T17:35:41.159Z,50.11
2022-10-06T17:45:44.002Z,49.71
2022-10-06T17:55:49.484Z,50.71
2022-10-06T18:05:58.878Z,51.20
2022-10-06T18:16:03.972Z,51.25
2022-10-06T18:26:07.039Z,50.33
2022-10-06T18:36:14.641Z,51.46
2022-10-06T18:46:36.753Z,53.32
2022-10-06T18:56:41.036Z,54.38
2022-10-06T19:06:46.778Z,55.76
2022-10-06T19:16:54.663Z,55.90
2022-10-06T19:26:59.593Z,56.59
2022-10-06T19:37:04.831Z,57.31
2022-10-06T19:47:09.153Z,58.12
2022-10-06T19:57:14.018Z,59.41
2022-10-06T20:07:16.995Z,57.81
2022-10-06T20:17:21.790Z,58.94
2022-10-06T20:27:24.745Z,58.76
2022-10-06T20:37:29.067Z,59.54
2022-10-06T20:47:31.957Z,59.38
2022-10-06T20:57:36.444Z,59.67
2022-10-06T21:07:39.609Z,60.80
2022-10-06T21:17:44.342Z,60.83
2022-10-06T21:27:48.285Z,61.05
2022-10-06T21:37:54.013Z,61.36
2022-10-06T21:47:57.043Z,60.36
2022-10-06T21:58:01.869Z,62.51
2022-10-06T22:08:04.922Z,61.63
2022-10-06T22:18:09.261Z,62.91
2022-10-06T22:28:12.396Z,62.74
2022-10-06T22:38:17.113Z,62.48
2022-10-06T22:48:20.102Z,62.25
2022-10-06T22:58:24.970Z,62.68
2022-10-06T23:08:34.208Z,63.92
2022-10-06T23:18:43.150Z,62.80
2022-10-06T23:28:47.380Z,63.46
2022-10-06T23:38:51.964Z,63.34
2022-10-06T23:48:54.861Z,64.01
2022-10-06T23:58:59.389Z,62.47
